Time;durP1;ratioP1;P1;durP2;ratioP2;P2;SDS_P1;SDS_P2;PMS_P1;PMS_P2;Temp;Humidity;BMP_temperature;BMP_pressure;BME280_temperature;BME280_humidity;BME280_pressure;Samples;Min_cycle;Max_cycle;Signal;HPM_P1;HPM_P2
2022/11/18 00:01:06;;;;;;;77.50;31.20;;;7.10;99.90;;;;;;5047533;28;20048;-81
2022/11/18 00:03:31;;;;;;;82.53;32.72;;;7.10;99.90;;;;;;5032166;28;20045;-80
2022/11/18 00:05:57;;;;;;;82.82;32.63;;;7.10;99.90;;;;;;5041886;28;20049;-80
2022/11/18 00:08:24;;;;;;;87.00;32.20;;;7.10;99.90;;;;;;5046441;28;20513;-80
2022/11/18 00:10:50;;;;;;;80.30;32.90;;;7.10;99.90;;;;;;5030487;28;20138;-80
2022/11/18 00:16:02;;;;;;;83.38;31.42;;;7.10;99.90;;;;;;5045550;28;20068;-81
2022/11/18 00:18:28;;;;;;;81.88;31.23;;;7.10;99.90;;;;;;5024246;28;20053;-81
2022/11/18 00:20:54;;;;;;;76.40;30.20;;;7.10;99.90;;;;;;5044451;28;20397;-80
2022/11/18 00:23:19;;;;;;;85.63;31.13;;;7.10;99.90;;;;;;5038142;28;20045;-80
2022/11/18 00:25:45;;;;;;;100.30;33.78;;;7.00;99.90;;;;;;5015481;28;20502;-80
2022/11/18 00:28:10;;;;;;;97.95;32.95;;;7.10;99.90;;;;;;5022545;28;20440;-81
2022/11/18 00:30:36;;;;;;;78.25;31.02;;;7.00;99.90;;;;;;5032447;28;20585;-80
2022/11/18 00:33:02;;;;;;;83.95;32.88;;;7.10;99.90;;;;;;5049737;28;20112;-81
2022/11/18 00:35:27;;;;;;;120.07;36.15;;;7.10;99.90;;;;;;5046089;28;20490;-81
2022/11/18 00:37:53;;;;;;;100.43;34.15;;;7.10;99.90;;;;;;5015623;28;20163;-81
2022/11/18 00:40:19;;;;;;;116.95;36.08;;;7.00;99.90;;;;;;5047990;28;20159;-81
2022/11/18 00:42:50;;;;;;;102.00;33.33;;;7.10;99.90;;;;;;5034666;28;20037;-80
2022/11/18 00:45:19;;;;;;;118.28;35.40;;;7.00;99.90;;;;;;5050035;28;20405;-85
2022/11/18 00:47:46;;;;;;;93.82;32.47;;;7.10;99.90;;;;;;5049251;28;20767;-79
2022/11/18 00:50:11;;;;;;;97.75;34.65;;;7.00;99.90;;;;;;5048192;28;20414;-80
2022/11/18 00:52:37;;;;;;;97.70;34.58;;;7.00;99.90;;;;;;5049095;28;20049;-81
2022/11/18 00:55:03;;;;;;;109.47;35.08;;;7.10;99.90;;;;;;5050119;28;20048;-80
2022/11/18 00:57:29;;;;;;;130.50;36.83;;;7.10;99.90;;;;;;5031219;28;20059;-81
2022/11/18 00:59:55;;;;;;;102.32;35.38;;;7.10;99.90;;;;;;5049911;28;20045;-80
2022/11/18 01:02:21;;;;;;;128.20;36.67;;;7.00;99.90;;;;;;5016166;28;20049;-82
2022/11/18 01:04:46;;;;;;;129.25;36.60;;;7.10;99.90;;;;;;5032262;28;20447;-80
2022/11/18 01:07:12;;;;;;;104.82;34.47;;;7.10;99.90;;;;;;5044221;28;20044;-80
2022/11/18 01:09:38;;;;;;;102.07;34.72;;;7.00;99.90;;;;;;5031058;28;20041;-81
2022/11/18 01:14:48;;;;;;;105.38;34.47;;;7.00;99.90;;;;;;5063049;28;20126;-81
2022/11/18 01:17:14;;;;;;;158.02;39.53;;;7.10;99.90;;;;;;5031634;28;20493;-80
2022/11/18 01:19:40;;;;;;;92.22;33.40;;;7.10;99.90;;;;;;5014695;28;20150;-80
2022/11/18 01:22:05;;;;;;;116.53;36.80;;;7.10;99.90;;;;;;5041681;28;20133;-80
2022/11/18 01:24:32;;;;;;;99.97;34.92;;;7.10;99.90;;;;;;5012260;28;20057;-80
2022/11/18 01:26:59;;;;;;;150.98;37.17;;;7.00;99.90;;;;;;5059692;28;20045;-81
2022/11/18 01:29:24;;;;;;;124.15;36.88;;;7.10;99.90;;;;;;5026744;28;20076;-82
2022/11/18 01:31:50;;;;;;;104.22;35.17;;;7.10;99.90;;;;;;5039303;28;20153;-79
2022/11/18 01:34:16;;;;;;;112.30;35.55;;;7.10;99.90;;;;;;5056653;28;20052;-81
2022/11/18 01:36:41;;;;;;;113.55;36.53;;;7.00;99.90;;;;;;5048689;28;20048;-80
2022/11/18 01:39:07;;;;;;;100.88;34.90;;;7.10;99.90;;;;;;5032887;28;20132;-80
2022/11/18 01:41:33;;;;;;;98.63;34.03;;;7.10;99.90;;;;;;5032328;28;20422;-80
2022/11/18 01:44:04;;;;;;;118.65;36.08;;;7.10;99.90;;;;;;5032466;28;20053;-80
2022/11/18 01:46:32;;;;;;;103.55;35.83;;;7.10;99.90;;;;;;5048014;28;21331;-80
2022/11/18 01:49:09;;;;;;;93.47;33.65;;;7.10;99.90;;;;;;5044804;28;20056;-81
2022/11/18 01:51:43;;;;;;;114.82;36.30;;;7.10;99.90;;;;;;5038717;28;20081;-81
2022/11/18 01:54:13;;;;;;;90.57;33.20;;;7.00;99.90;;;;;;5040435;28;20056;-80
2022/11/18 01:56:42;;;;;;;100.05;35.25;;;7.10;99.90;;;;;;5047323;28;20055;-80
2022/11/18 01:59:12;;;;;;;92.43;33.92;;;7.10;99.90;;;;;;5048366;28;20163;-80
2022/11/18 02:01:38;;;;;;;121.75;36.92;;;7.00;99.90;;;;;;5042507;28;20122;-80
2022/11/18 02:04:06;;;;;;;85.97;32.55;;;7.10;99.90;;;;;;5045554;28;20120;-81
2022/11/18 02:06:33;;;;;;;95.75;32.95;;;7.00;99.90;;;;;;5031995;28;20521;-80
2022/11/18 02:08:59;;;;;;;101.72;34.33;;;7.10;99.90;;;;;;5023559;28;20111;-80
2022/11/18 02:14:09;;;;;;;93.82;32.08;;;7.00;99.90;;;;;;5056393;28;20433;-81
2022/11/18 02:16:44;;;;;;;111.35;34.92;;;7.00;99.90;;;;;;5044904;28;20394;-80
2022/11/18 02:19:28;;;;;;;103.60;33.17;;;7.00;99.90;;;;;;5047976;28;20048;-80
2022/11/18 02:22:05;;;;;;;100.50;32.97;;;7.00;99.90;;;;;;5021375;28;20052;-81
2022/11/18 02:24:59;;;;;;;102.97;34.00;;;7.00;99.90;;;;;;5046664;28;20099;-85
2022/11/18 02:27:56;;;;;;;93.22;32.33;;;7.00;99.90;;;;;;5047571;28;20471;-80
2022/11/18 02:30:22;;;;;;;107.22;34.33;;;7.00;99.90;;;;;;5037857;28;20127;-80
2022/11/18 02:32:59;;;;;;;103.93;34.47;;;7.00;99.90;;;;;;5027730;28;20042;-82
2022/11/18 02:35:38;;;;;;;90.30;32.13;;;7.00;99.90;;;;;;5041135;28;20094;-80
2022/11/18 02:38:08;;;;;;;101.45;33.28;;;7.00;99.90;;;;;;5042737;28;20076;-81
2022/11/18 02:40:42;;;;;;;99.75;33.83;;;7.00;99.90;;;;;;5024167;28;20103;-85
2022/11/18 02:43:17;;;;;;;105.57;33.10;;;7.00;99.90;;;;;;5038681;28;20394;-81
2022/11/18 02:45:48;;;;;;;110.25;34.33;;;7.00;99.90;;;;;;5017959;28;20088;-80
2022/11/18 02:48:16;;;;;;;105.35;33.55;;;7.00;99.90;;;;;;5030716;28;20048;-81
2022/11/18 02:50:45;;;;;;;98.65;32.47;;;7.00;99.90;;;;;;5034275;28;20384;-80
2022/11/18 02:53:14;;;;;;;115.43;34.15;;;7.00;99.90;;;;;;5020229;28;20111;-81
2022/11/18 02:55:43;;;;;;;119.03;35.40;;;6.90;99.90;;;;;;5046269;28;20045;-81
2022/11/18 02:58:10;;;;;;;88.40;31.17;;;7.00;99.90;;;;;;5018754;28;20436;-81
2022/11/18 03:00:35;;;;;;;114.10;35.30;;;7.00;99.90;;;;;;5047425;28;20443;-86
2022/11/18 03:03:23;;;;;;;110.35;34.88;;;7.00;99.90;;;;;;5014878;28;20076;-81
2022/11/18 03:05:55;;;;;;;93.57;33.25;;;7.00;99.90;;;;;;5045743;28;20055;-80
2022/11/18 03:08:27;;;;;;;125.47;36.13;;;7.00;99.90;;;;;;5045311;28;20045;-81
2022/11/18 03:11:22;;;;;;;93.25;33.90;;;7.00;99.90;;;;;;5031753;28;20101;-80
2022/11/18 03:14:19;;;;;;;88.72;34.13;;;7.00;99.90;;;;;;5028032;28;20450;-80
2022/11/18 03:16:54;;;;;;;99.00;34.75;;;7.00;99.90;;;;;;5042471;28;20053;-81
2022/11/18 03:19:34;;;;;;;101.77;34.57;;;7.00;99.90;;;;;;5050275;28;20049;-80
2022/11/18 03:22:16;;;;;;;93.65;34.65;;;7.00;99.90;;;;;;5051293;28;20487;-81
2022/11/18 03:24:59;;;;;;;94.03;35.78;;;7.00;99.90;;;;;;5049310;28;20092;-81
2022/11/18 03:27:32;;;;;;;83.28;32.35;;;7.00;99.90;;;;;;5050682;28;20099;-80
2022/11/18 03:30:03;;;;;;;82.50;32.42;;;7.00;99.90;;;;;;5050914;28;20076;-80
2022/11/18 03:32:32;;;;;;;90.95;33.40;;;6.90;99.90;;;;;;5039437;28;20109;-80
2022/11/18 03:35:05;;;;;;;99.95;35.53;;;6.90;99.90;;;;;;5053629;28;20048;-84
2022/11/18 03:37:34;;;;;;;96.90;33.88;;;6.90;99.90;;;;;;5040312;28;20057;-80
2022/11/18 03:40:10;;;;;;;84.80;32.53;;;6.90;99.90;;;;;;5058654;28;20049;-81
2022/11/18 03:42:42;;;;;;;84.43;33.35;;;6.90;99.90;;;;;;5051850;28;20051;-80
2022/11/18 03:45:40;;;;;;;89.03;34.30;;;6.90;99.90;;;;;;5048211;28;20116;-82
2022/11/18 03:48:23;;;;;;;80.50;30.75;;;6.90;99.90;;;;;;5019447;28;20065;-81
2022/11/18 03:51:07;;;;;;;78.75;30.83;;;6.90;99.90;;;;;;5020561;28;20451;-80
2022/11/18 03:53:40;;;;;;;70.82;30.40;;;6.90;99.90;;;;;;5044988;28;20398;-81
2022/11/18 03:56:14;;;;;;;84.35;31.75;;;6.80;99.90;;;;;;5034195;28;20081;-82
2022/11/18 03:58:49;;;;;;;85.28;30.85;;;6.80;99.90;;;;;;5051831;28;20052;-80
2022/11/18 04:01:20;;;;;;;85.73;32.17;;;6.80;99.90;;;;;;5022436;28;20124;-80
2022/11/18 04:03:46;;;;;;;96.75;32.17;;;6.90;99.90;;;;;;5044564;28;20055;-83
2022/11/18 04:06:18;;;;;;;75.05;30.83;;;6.80;99.90;;;;;;5040661;28;20462;-80
2022/11/18 04:08:49;;;;;;;85.30;31.10;;;6.80;99.90;;;;;;5043831;28;20536;-83
2022/11/18 04:14:08;;;;;;;70.32;29.13;;;6.80;99.90;;;;;;5048129;28;20057;-80
2022/11/18 04:16:39;;;;;;;85.65;30.75;;;6.80;99.90;;;;;;5048713;28;20056;-80
2022/11/18 04:19:05;;;;;;;77.40;30.48;;;6.90;99.90;;;;;;5033549;28;20240;-81
2022/11/18 04:21:30;;;;;;;69.05;28.92;;;6.80;99.90;;;;;;5049952;28;20564;-80
2022/11/18 04:23:56;;;;;;;78.57;29.52;;;6.80;99.90;;;;;;5031942;28;20049;-80
2022/11/18 04:26:22;;;;;;;70.72;28.75;;;6.80;99.90;;;;;;5032184;28;20041;-81
2022/11/18 04:28:48;;;;;;;70.78;28.40;;;6.80;99.90;;;;;;5048712;28;20045;-84
2022/11/18 04:31:13;;;;;;;85.93;29.25;;;6.80;99.90;;;;;;5051093;28;20116;-80
2022/11/18 04:33:39;;;;;;;85.88;30.50;;;6.80;99.90;;;;;;5044308;28;20117;-80
2022/11/18 04:36:05;;;;;;;70.57;29.08;;;6.80;99.90;;;;;;5021924;28;20045;-80
2022/11/18 04:38:30;;;;;;;80.72;29.92;;;6.80;99.90;;;;;;5044173;28;20106;-81
2022/11/18 04:40:56;;;;;;;80.15;29.17;;;6.80;99.90;;;;;;5005332;28;20069;-80
2022/11/18 04:43:22;;;;;;;69.50;27.40;;;6.80;99.90;;;;;;5035517;28;20049;-81
2022/11/18 04:45:47;;;;;;;80.45;29.98;;;6.80;99.90;;;;;;5040360;28;20048;-80
2022/11/18 04:48:13;;;;;;;94.00;31.17;;;6.80;99.90;;;;;;5046450;28;20085;-80
2022/11/18 04:50:39;;;;;;;79.88;30.15;;;6.90;99.90;;;;;;5013063;28;20081;-80
2022/11/18 04:53:05;;;;;;;82.22;28.95;;;6.80;99.90;;;;;;5036993;28;20045;-81
2022/11/18 04:55:30;;;;;;;83.05;29.35;;;6.80;99.90;;;;;;5018160;28;20044;-80
2022/11/18 04:57:56;;;;;;;75.75;29.08;;;6.80;99.90;;;;;;5023186;28;20131;-81
2022/11/18 05:00:22;;;;;;;85.97;29.42;;;6.80;99.90;;;;;;5043805;28;20075;-80
2022/11/18 05:02:47;;;;;;;78.15;29.38;;;6.70;99.90;;;;;;5049221;28;20098;-81
2022/11/18 05:05:13;;;;;;;84.15;28.80;;;6.70;99.90;;;;;;5049966;28;20041;-80
2022/11/18 05:07:39;;;;;;;92.82;30.58;;;6.70;99.90;;;;;;5044312;28;20124;-80
2022/11/18 05:10:05;;;;;;;82.80;29.13;;;6.70;99.90;;;;;;5029422;28;20132;-80
2022/11/18 05:12:49;;;;;;;82.63;28.10;;;6.70;99.90;;;;;;5013726;28;20490;-81
2022/11/18 05:15:16;;;;;;;71.18;27.95;;;6.80;99.90;;;;;;5026010;28;20068;-80
2022/11/18 05:17:41;;;;;;;89.05;28.70;;;6.70;99.90;;;;;;5033727;28;20053;-80
2022/11/18 05:20:08;;;;;;;89.70;30.10;;;6.70;99.90;;;;;;5032696;28;20380;-80
2022/11/18 05:22:34;;;;;;;76.97;27.40;;;6.70;99.90;;;;;;5060134;28;20052;-80
2022/11/18 05:24:59;;;;;;;78.00;27.83;;;6.70;99.90;;;;;;5049645;28;20045;-81
2022/11/18 05:27:25;;;;;;;86.95;28.60;;;6.70;99.90;;;;;;5049633;28;20074;-80
2022/11/18 05:29:51;;;;;;;81.68;29.55;;;6.70;99.90;;;;;;5033420;28;20079;-79
2022/11/18 05:32:17;;;;;;;87.15;30.02;;;6.70;99.90;;;;;;5036174;28;20231;-80
2022/11/18 05:34:42;;;;;;;91.72;30.63;;;6.60;99.90;;;;;;5054862;28;20041;-80
2022/11/18 05:37:08;;;;;;;91.72;30.55;;;6.60;99.90;;;;;;5031876;28;20086;-82
2022/11/18 05:39:34;;;;;;;86.32;29.33;;;6.70;99.90;;;;;;5052410;28;20049;-81
2022/11/18 05:44:45;;;;;;;113.18;32.13;;;6.60;99.90;;;;;;5043676;28;20049;-81
2022/11/18 05:47:10;;;;;;;78.55;28.35;;;6.60;99.90;;;;;;5038403;28;20068;-81
2022/11/18 05:49:36;;;;;;;80.05;27.95;;;6.60;99.90;;;;;;5029584;28;20084;-80
2022/11/18 05:52:02;;;;;;;92.53;30.45;;;6.60;99.90;;;;;;5039451;28;20045;-84
2022/11/18 05:54:28;;;;;;;98.55;30.77;;;6.60;99.90;;;;;;5000852;28;20042;-81
2022/11/18 05:56:53;;;;;;;92.72;34.20;;;6.60;99.90;;;;;;5001243;28;20046;-80
2022/11/18 05:59:19;;;;;;;92.15;31.60;;;6.60;99.90;;;;;;5035778;28;20133;-80
2022/11/18 06:01:56;;;;;;;98.28;32.13;;;6.60;99.90;;;;;;5024477;28;20052;-80
2022/11/18 06:04:28;;;;;;;110.82;32.85;;;6.60;99.90;;;;;;5047396;28;20603;-80
2022/11/18 06:07:00;;;;;;;123.28;35.63;;;6.60;99.90;;;;;;5041379;28;20053;-80
2022/11/18 06:09:31;;;;;;;102.85;34.22;;;6.50;99.90;;;;;;5028571;28;20057;-82
2022/11/18 06:11:58;;;;;;;77.32;28.10;;;6.60;99.90;;;;;;5042858;28;20101;-80
2022/11/18 06:14:31;;;;;;;104.20;31.75;;;6.50;99.90;;;;;;5027906;28;20049;-81
2022/11/18 06:17:01;;;;;;;89.75;30.38;;;6.50;99.90;;;;;;5032792;28;20057;-80
2022/11/18 06:19:27;;;;;;;90.50;30.33;;;6.50;99.90;;;;;;5037393;28;20417;-81
2022/11/18 06:21:53;;;;;;;89.05;30.05;;;6.40;99.90;;;;;;5048644;28;20049;-80
2022/11/18 06:24:19;;;;;;;77.72;28.83;;;6.50;99.90;;;;;;5041399;28;20064;-84
2022/11/18 06:26:45;;;;;;;97.20;31.50;;;6.50;99.90;;;;;;4992957;28;20482;-80
2022/11/18 06:29:14;;;;;;;99.50;35.80;;;6.60;99.90;;;;;;5035112;28;20088;-81
2022/11/18 06:31:39;;;;;;;88.57;31.92;;;6.50;99.90;;;;;;5033645;28;20371;-80
2022/11/18 06:34:05;;;;;;;95.07;31.50;;;6.40;99.90;;;;;;5048112;28;20051;-85
2022/11/18 06:36:31;;;;;;;85.35;29.08;;;6.50;99.90;;;;;;5045783;28;20056;-80
2022/11/18 06:39:04;;;;;;;84.72;30.58;;;6.40;99.90;;;;;;5013650;28;20479;-80
2022/11/18 06:41:30;;;;;;;109.65;32.55;;;6.40;99.90;;;;;;5061308;28;20141;-80
2022/11/18 06:43:56;;;;;;;105.82;35.17;;;6.50;99.90;;;;;;5048153;28;20041;-80
2022/11/18 06:49:06;;;;;;;103.60;33.85;;;6.50;99.90;;;;;;5026081;28;20107;-81
2022/11/18 06:51:31;;;;;;;110.15;32.58;;;6.40;99.90;;;;;;5038328;28;20045;-78
2022/11/18 06:53:57;;;;;;;125.22;34.67;;;6.50;99.90;;;;;;5030646;28;20048;-79
2022/11/18 06:56:23;;;;;;;83.78;27.98;;;6.40;99.90;;;;;;5044472;28;20044;-80
2022/11/18 06:58:54;;;;;;;78.05;27.77;;;6.50;99.90;;;;;;5047013;28;20059;-80
2022/11/18 07:01:22;;;;;;;76.03;30.63;;;6.50;99.90;;;;;;5022367;28;20499;-79
2022/11/18 07:03:48;;;;;;;75.75;27.33;;;6.40;99.90;;;;;;5064544;28;20374;-79
2022/11/18 07:06:20;;;;;;;81.53;29.58;;;6.40;99.90;;;;;;5017588;28;20056;-79
2022/11/18 07:08:46;;;;;;;105.75;30.95;;;6.40;99.90;;;;;;5067504;28;20055;-78
2022/11/18 07:11:14;;;;;;;79.03;26.75;;;6.40;99.90;;;;;;5052689;28;20055;-84
2022/11/18 07:13:40;;;;;;;69.05;25.40;;;6.40;99.90;;;;;;5048556;28;20107;-79
2022/11/18 07:16:14;;;;;;;89.85;27.90;;;6.40;99.90;;;;;;5036137;28;20037;-80
2022/11/18 07:18:41;;;;;;;77.18;25.85;;;6.40;99.90;;;;;;5048290;28;20641;-79
2022/11/18 07:21:14;;;;;;;75.93;24.70;;;6.40;99.90;;;;;;5049180;28;20442;-79
2022/11/18 07:23:40;;;;;;;97.15;27.80;;;6.40;99.90;;;;;;5027727;28;20120;-79
2022/11/18 07:26:07;;;;;;;92.65;27.27;;;6.40;99.90;;;;;;5059067;28;20147;-79
2022/11/18 07:28:33;;;;;;;90.32;26.73;;;6.40;99.90;;;;;;5053305;28;20114;-78
2022/11/18 07:31:04;;;;;;;81.82;25.48;;;6.40;99.90;;;;;;5013893;28;20124;-78
2022/11/18 07:33:31;;;;;;;68.18;22.88;;;6.40;99.90;;;;;;5045056;28;20056;-78
2022/11/18 07:36:05;;;;;;;70.47;23.33;;;6.40;99.90;;;;;;5040353;28;20056;-78
2022/11/18 07:38:31;;;;;;;77.25;23.83;;;6.40;99.90;;;;;;5035331;28;20049;-78
2022/11/18 07:41:14;;;;;;;76.72;24.27;;;6.40;99.90;;;;;;5058405;28;20052;-79
2022/11/18 07:43:40;;;;;;;65.68;22.63;;;6.40;99.90;;;;;;5048199;28;20068;-79
2022/11/18 07:46:15;;;;;;;84.75;24.85;;;6.40;99.90;;;;;;5054562;28;20091;-80
2022/11/18 07:48:42;;;;;;;58.70;21.42;;;6.40;99.90;;;;;;5059655;28;20073;-79
2022/11/18 07:51:08;;;;;;;67.70;22.23;;;6.40;99.90;;;;;;5030244;28;20045;-81
2022/11/18 07:53:35;;;;;;;60.78;23.42;;;6.40;99.90;;;;;;5046593;28;20053;-80
2022/11/18 07:56:01;;;;;;;87.30;26.83;;;6.30;99.90;;;;;;5050013;28;20102;-79
2022/11/18 07:58:27;;;;;;;105.00;41.05;;;6.40;99.90;;;;;;5049563;28;20521;-80
2022/11/18 08:00:53;;;;;;;98.72;35.63;;;6.40;99.90;;;;;;5054024;28;20046;-80
2022/11/18 08:03:18;;;;;;;75.70;26.23;;;6.40;99.90;;;;;;5023628;28;20069;-81
2022/11/18 08:05:44;;;;;;;57.88;20.35;;;6.40;99.90;;;;;;5053420;28;20060;-78
2022/11/18 08:08:10;;;;;;;51.67;19.15;;;6.40;99.90;;;;;;5019750;28;20045;-78
2022/11/18 08:10:36;;;;;;;48.97;19.52;;;6.40;99.90;;;;;;5051467;28;20493;-78
2022/11/18 08:13:02;;;;;;;51.15;19.23;;;6.40;99.90;;;;;;5039759;28;20044;-78
2022/11/18 08:15:28;;;;;;;66.60;20.70;;;6.40;99.90;;;;;;5035739;28;20620;-79
2022/11/18 08:17:53;;;;;;;50.63;19.10;;;6.40;99.90;;;;;;5068991;28;20434;-78
2022/11/18 08:20:19;;;;;;;52.20;19.20;;;6.40;99.90;;;;;;5068150;28;20080;-79
2022/11/18 08:22:44;;;;;;;53.65;18.67;;;6.40;99.90;;;;;;5040978;28;20402;-79
2022/11/18 08:25:10;;;;;;;47.28;17.92;;;6.40;99.90;;;;;;5019638;28;20398;-79
2022/11/18 08:27:36;;;;;;;50.78;18.40;;;6.40;99.90;;;;;;5043520;28;20398;-79
2022/11/18 08:30:02;;;;;;;48.58;19.52;;;6.40;99.90;;;;;;5057546;28;20052;-79
2022/11/18 08:32:27;;;;;;;59.67;23.85;;;6.40;99.90;;;;;;5051950;28;20055;-81
2022/11/18 08:34:53;;;;;;;56.53;22.40;;;6.40;99.90;;;;;;5035318;28;20393;-79
2022/11/18 08:37:19;;;;;;;74.80;27.15;;;6.40;99.90;;;;;;5052715;28;20183;-80
2022/11/18 08:39:44;;;;;;;66.75;25.67;;;6.40;99.90;;;;;;5052286;28;20128;-79
2022/11/18 08:42:10;;;;;;;61.10;26.08;;;6.40;99.90;;;;;;5043567;28;20150;-79
2022/11/18 08:44:36;;;;;;;60.15;24.67;;;6.40;99.90;;;;;;5035148;28;20063;-84
2022/11/18 08:47:02;;;;;;;47.33;22.25;;;6.50;99.90;;;;;;5030364;28;20486;-80
2022/11/18 08:49:27;;;;;;;42.25;18.85;;;6.40;99.90;;;;;;5046860;28;20057;-81
2022/11/18 08:51:53;;;;;;;51.00;20.77;;;6.40;99.90;;;;;;5033084;28;20067;-79
2022/11/18 08:54:19;;;;;;;46.88;18.75;;;6.40;99.90;;;;;;5033710;28;20045;-79
2022/11/18 08:56:45;;;;;;;47.40;19.63;;;6.40;99.90;;;;;;5048613;28;20135;-79
2022/11/18 08:59:10;;;;;;;44.30;19.40;;;6.40;99.90;;;;;;5035056;28;20049;-79
2022/11/18 09:01:37;;;;;;;44.72;18.77;;;6.30;99.90;;;;;;5034275;28;20048;-81
2022/11/18 09:04:03;;;;;;;46.55;19.15;;;6.30;99.90;;;;;;5031162;28;20094;-79
2022/11/18 09:06:29;;;;;;;59.20;20.65;;;6.30;99.90;;;;;;5052878;28;20049;-84
2022/11/18 09:08:55;;;;;;;44.70;19.60;;;6.30;99.90;;;;;;5043179;28;20551;-80
2022/11/18 09:11:23;;;;;;;44.72;18.90;;;6.30;99.90;;;;;;5061361;28;20095;-79
2022/11/18 09:13:54;;;;;;;50.80;20.67;;;6.30;99.90;;;;;;5042387;28;20862;-79
2022/11/18 09:16:22;;;;;;;48.25;20.98;;;6.30;99.90;;;;;;5053901;28;20071;-79
2022/11/18 09:18:49;;;;;;;50.33;20.45;;;6.30;99.90;;;;;;5047622;28;20041;-80
2022/11/18 09:21:16;;;;;;;55.67;20.65;;;6.30;99.90;;;;;;5050027;28;20045;-78
2022/11/18 09:23:41;;;;;;;44.63;17.92;;;6.40;99.90;;;;;;5051598;28;20506;-78
2022/11/18 09:26:13;;;;;;;47.80;19.33;;;6.40;99.90;;;;;;5040695;28;20095;-84
2022/11/18 09:28:39;;;;;;;41.47;17.98;;;6.40;99.90;;;;;;5044933;28;20037;-79
2022/11/18 09:31:10;;;;;;;38.10;16.15;;;6.40;99.90;;;;;;5040341;28;20047;-77
2022/11/18 09:33:37;;;;;;;44.83;16.65;;;6.40;99.90;;;;;;5042147;28;20053;-80
2022/11/18 09:36:04;;;;;;;38.40;16.50;;;6.50;99.90;;;;;;5043774;28;20046;-80
2022/11/18 09:38:31;;;;;;;43.17;17.88;;;6.40;99.90;;;;;;5030019;28;21266;-80
2022/11/18 09:41:02;;;;;;;43.38;18.27;;;6.40;99.90;;;;;;5050414;28;20051;-81
2022/11/18 09:43:46;;;;;;;40.55;18.98;;;6.50;99.90;;;;;;5017600;28;20038;-81
2022/11/18 09:46:37;;;;;;;37.15;17.25;;;6.50;99.90;;;;;;5043846;28;20158;-80
2022/11/18 09:49:14;;;;;;;33.25;15.98;;;6.40;99.90;;;;;;5026473;28;20429;-80
2022/11/18 09:51:48;;;;;;;30.67;15.30;;;6.40;99.90;;;;;;5062293;28;20055;-80
2022/11/18 09:54:21;;;;;;;33.75;16.83;;;6.40;99.90;;;;;;5060899;28;20053;-80
2022/11/18 09:56:50;;;;;;;36.38;15.98;;;6.40;99.90;;;;;;5027127;28;20061;-80
2022/11/18 09:59:20;;;;;;;44.38;18.70;;;6.40;99.90;;;;;;5030656;28;20060;-81
2022/11/18 10:01:47;;;;;;;37.33;16.70;;;6.30;99.90;;;;;;5049324;28;20056;-80
2022/11/18 10:04:18;;;;;;;42.42;16.75;;;6.40;99.90;;;;;;5035114;28;20095;-80
2022/11/18 10:06:45;;;;;;;44.83;18.52;;;6.40;99.90;;;;;;5022360;28;20053;-80
2022/11/18 10:09:34;;;;;;;39.95;17.67;;;6.40;99.90;;;;;;5046070;28;20058;-81
2022/11/18 10:12:18;;;;;;;37.30;16.75;;;6.40;99.90;;;;;;5044491;28;20033;-83
2022/11/18 10:15:30;;;;;;;40.95;17.00;;;6.50;99.90;;;;;;5036606;28;20045;-79
2022/11/18 10:18:20;;;;;;;34.15;16.20;;;6.50;99.90;;;;;;5056319;28;20068;-81
2022/11/18 10:21:14;;;;;;;37.15;17.17;;;6.50;99.90;;;;;;5026059;28;20045;-79
2022/11/18 10:23:59;;;;;;;34.05;15.93;;;6.50;99.90;;;;;;5044942;28;20478;-83
2022/11/18 10:26:32;;;;;;;38.45;17.42;;;6.50;99.90;;;;;;5044277;28;20091;-82
2022/11/18 10:28:58;;;;;;;37.63;17.92;;;6.40;99.90;;;;;;5055181;28;20103;-80
2022/11/18 10:31:23;;;;;;;39.80;18.02;;;6.40;99.90;;;;;;5032640;28;20045;-80
2022/11/18 10:33:58;;;;;;;45.88;17.52;;;6.30;99.90;;;;;;5030842;28;20486;-80
2022/11/18 10:36:27;;;;;;;47.38;18.63;;;6.30;99.90;;;;;;5027862;28;20711;-79
2022/11/18 10:39:13;;;;;;;41.05;17.52;;;6.30;99.90;;;;;;5046213;28;20076;-83
2022/11/18 10:41:48;;;;;;;39.10;17.47;;;6.30;99.90;;;;;;5043975;28;20057;-83
2022/11/18 10:44:34;;;;;;;44.22;18.40;;;6.40;99.90;;;;;;5038143;28;20840;-80
2022/11/18 10:47:15;;;;;;;37.90;15.80;;;6.30;99.90;;;;;;5053308;28;20037;-83
2022/11/18 10:49:41;;;;;;;34.45;16.02;;;6.30;99.90;;;;;;5044479;28;20406;-80
2022/11/18 10:52:13;;;;;;;49.20;18.80;;;6.30;99.90;;;;;;5064834;28;20485;-81
2022/11/18 10:54:39;;;;;;;41.88;17.95;;;6.30;99.90;;;;;;5042235;28;20045;-81
2022/11/18 10:57:19;;;;;;;53.22;27.38;;;6.30;99.90;;;;;;5060083;28;20105;-81
2022/11/18 10:59:53;;;;;;;45.15;20.23;;;6.30;99.90;;;;;;5033597;28;20051;-84
2022/11/18 11:02:31;;;;;;;48.75;21.33;;;6.30;99.90;;;;;;5059466;28;20075;-81
2022/11/18 11:05:01;;;;;;;42.17;17.13;;;6.30;99.90;;;;;;5022137;28;20079;-83
2022/11/18 11:07:30;;;;;;;43.42;18.02;;;6.20;99.90;;;;;;5035512;28;20056;-83
2022/11/18 11:10:03;;;;;;;45.40;17.35;;;6.20;99.90;;;;;;5050512;28;20068;-82
2022/11/18 11:12:32;;;;;;;40.92;18.60;;;6.20;99.90;;;;;;5045652;28;20172;-81
2022/11/18 11:15:15;;;;;;;40.05;18.33;;;6.10;99.90;;;;;;5031165;28;20048;-82
2022/11/18 11:20:43;;;;;;;58.92;19.60;;;6.00;99.90;;;;;;5050585;28;20063;-84
2022/11/18 11:23:14;;;;;;;47.65;18.85;;;6.00;99.90;;;;;;5034043;28;20041;-83
2022/11/18 11:26:07;;;;;;;47.05;19.15;;;6.00;99.90;;;;;;5049419;28;20041;-83
2022/11/18 11:28:43;;;;;;;50.42;18.67;;;6.00;99.90;;;;;;5046713;28;20045;-82
2022/11/18 11:31:15;;;;;;;48.33;19.13;;;6.00;99.90;;;;;;5042108;28;20056;-84
2022/11/18 11:33:59;;;;;;;49.85;18.83;;;6.00;99.90;;;;;;5037742;28;20070;-82
2022/11/18 11:36:31;;;;;;;45.35;18.67;;;6.00;99.90;;;;;;5051680;28;20048;-85
2022/11/18 11:39:24;;;;;;;47.45;18.30;;;5.90;99.90;;;;;;5043524;28;20498;-82
2022/11/18 11:41:58;;;;;;;49.03;18.58;;;6.00;99.90;;;;;;5043781;28;20063;-82
2022/11/18 11:44:32;;;;;;;47.20;19.30;;;5.90;99.90;;;;;;5049279;28;20053;-82
2022/11/18 11:49:59;;;;;;;43.50;17.90;;;5.90;99.90;;;;;;5044955;28;20045;-77
2022/11/18 11:52:28;;;;;;;49.00;18.15;;;5.80;99.90;;;;;;5026512;28;20045;-77
2022/11/18 11:55:16;;;;;;;43.20;17.67;;;5.80;99.90;;;;;;5049878;28;20049;-82
2022/11/18 11:58:26;;;;;;;50.30;18.20;;;5.70;99.90;;;;;;5054677;28;20078;-76
2022/11/18 12:01:17;;;;;;;42.90;16.15;;;5.70;99.90;;;;;;5036004;28;20053;-81
2022/11/18 12:04:10;;;;;;;43.92;16.60;;;5.70;99.90;;;;;;5058878;28;20483;-78
2022/11/18 12:06:36;;;;;;;47.92;17.88;;;5.70;99.90;;;;;;5052194;28;20762;-77
2022/11/18 12:09:25;;;;;;;44.55;18.00;;;5.70;99.90;;;;;;5035024;28;20059;-77
2022/11/18 12:15:14;;;;;;;33.22;14.15;;;5.80;99.90;;;;;;5038260;28;20064;-77
2022/11/18 12:17:45;;;;;;;36.15;14.02;;;5.80;99.90;;;;;;5052055;28;20068;-77
2022/11/18 12:20:36;;;;;;;37.42;14.63;;;5.80;99.90;;;;;;5046065;28;20060;-77
2022/11/18 12:23:17;;;;;;;37.70;15.75;;;5.80;99.90;;;;;;5044238;28;20053;-77
2022/11/18 12:25:53;;;;;;;33.42;14.32;;;5.90;99.90;;;;;;5043767;28;20132;-77
2022/11/18 12:28:31;;;;;;;27.15;12.55;;;5.90;99.90;;;;;;5049723;28;20650;-77
2022/11/18 12:31:18;;;;;;;24.38;11.32;;;6.00;99.90;;;;;;5057024;28;20052;-78
2022/11/18 12:33:56;;;;;;;25.48;11.82;;;6.10;99.90;;;;;;5051381;28;20565;-77
2022/11/18 12:36:29;;;;;;;26.98;11.35;;;6.00;99.90;;;;;;5050008;28;20052;-77
2022/11/18 12:38:56;;;;;;;25.70;11.40;;;6.00;99.90;;;;;;5055798;28;20513;-76
2022/11/18 12:44:31;;;;;;;25.65;11.95;;;5.90;99.90;;;;;;5048599;28;20053;-77
2022/11/18 12:46:58;;;;;;;26.23;11.70;;;5.80;99.90;;;;;;5054302;28;20136;-79
2022/11/18 12:49:24;;;;;;;31.05;11.77;;;5.70;99.90;;;;;;5047331;28;20048;-81
2022/11/18 12:51:55;;;;;;;30.88;12.40;;;5.60;99.90;;;;;;5036727;28;20053;-80
2022/11/18 12:54:46;;;;;;;31.73;13.07;;;5.60;99.90;;;;;;5047018;28;20052;-80
2022/11/18 12:57:21;;;;;;;39.65;15.55;;;5.60;99.90;;;;;;5049653;28;20482;-79
2022/11/18 12:59:47;;;;;;;33.38;14.70;;;5.50;99.90;;;;;;5048951;28;20082;-81
2022/11/18 13:02:21;;;;;;;35.22;14.77;;;5.40;99.90;;;;;;5033474;28;20041;-79
2022/11/18 13:05:07;;;;;;;37.25;14.98;;;5.50;99.90;;;;;;5047944;28;20045;-78
2022/11/18 13:10:36;;;;;;;34.33;14.55;;;5.30;99.90;;;;;;5052602;28;20100;-78
2022/11/18 13:13:02;;;;;;;30.38;14.73;;;5.30;99.90;;;;;;5057009;28;20418;-79
2022/11/18 13:18:20;;;;;;;36.95;15.75;;;5.20;99.90;;;;;;5048037;28;20056;-77
2022/11/18 13:20:57;;;;;;;48.97;24.48;;;5.30;99.90;;;;;;5039366;28;20134;-77
2022/11/18 13:26:25;;;;;;;36.38;17.00;;;5.40;99.90;;;;;;5052375;28;20103;-82
2022/11/18 13:29:11;;;;;;;;;;;5.40;99.90;;;;;;5040630;28;20163;-81
2022/11/18 13:32:14;;;;;;;34.53;14.25;;;5.40;99.90;;;;;;5049566;28;19928;-81